Time;durP1;ratioP1;P1;durP2;ratioP2;P2;SDS_P1;SDS_P2;PMS_P1;PMS_P2;Temp;Humidity;BMP_temperature;BMP_pressure;BME280_temperature;BME280_humidity;BME280_pressure;Samples;Min_cycle;Max_cycle;Signal;HPM_P1;HPM_P2
2021/01/10 00:00:30;;;;;;;26.68;17.75;;;;;;;0.65;76.00;100733.62;1788936;79;21176;-72
2021/01/10 00:02:58;;;;;;;24.47;15.95;;;;;;;0.67;75.91;100726.38;1788061;78;21381;-72
2021/01/10 00:05:29;;;;;;;25.92;16.67;;;;;;;0.68;75.80;100731.94;1791466;78;21176;-74
2021/01/10 00:08:00;;;;;;;26.48;16.40;;;;;;;0.71;75.78;100734.70;1800309;78;21128;-73
2021/01/10 00:10:29;;;;;;;26.30;17.95;;;;;;;0.70;75.76;100728.63;1789621;79;21443;-73
2021/01/10 00:12:58;;;;;;;25.85;16.57;;;;;;;0.72;75.68;100732.88;1808469;77;21138;-73
2021/01/10 00:15:28;;;;;;;25.05;16.55;;;;;;;0.70;75.56;100733.89;1779150;80;21664;-73
2021/01/10 00:17:57;;;;;;;24.43;15.75;;;;;;;0.69;75.57;100730.95;1775612;80;21143;-73
2021/01/10 00:20:27;;;;;;;26.65;17.35;;;;;;;0.68;75.49;100730.62;1776255;78;21151;-73
2021/01/10 00:22:56;;;;;;;25.45;16.93;;;;;;;0.70;75.52;100737.83;1773149;79;21185;-74
2021/01/10 00:25:23;;;;;;;28.38;17.90;;;;;;;0.69;75.60;100741.47;1788495;80;21141;-73
2021/01/10 00:27:51;;;;;;;26.20;17.05;;;;;;;0.70;75.45;100734.39;1788617;80;21213;-73
2021/01/10 00:30:20;;;;;;;24.35;15.98;;;;;;;0.71;75.51;100737.33;1757832;81;21628;-73
2021/01/10 00:32:50;;;;;;;25.43;15.65;;;;;;;0.70;75.42;100746.22;1769838;80;21556;-73
2021/01/10 00:35:18;;;;;;;27.90;17.80;;;;;;;0.69;75.40;100751.98;1773667;80;21176;-73
2021/01/10 00:37:48;;;;;;;24.32;15.30;;;;;;;0.67;75.39;100752.66;1763720;80;21179;-73
2021/01/10 00:40:17;;;;;;;24.75;16.55;;;;;;;0.67;75.29;100752.66;1777606;79;21397;-73
2021/01/10 00:42:45;;;;;;;22.90;15.28;;;;;;;0.65;75.26;100749.39;1769337;79;21593;-74
2021/01/10 00:45:14;;;;;;;23.40;15.18;;;;;;;0.64;75.29;100754.34;1772298;80;21196;-72
2021/01/10 00:47:42;;;;;;;24.05;16.25;;;;;;;0.65;75.42;100752.02;1789559;80;21188;-73
2021/01/10 00:52:57;;;;;;;25.48;17.85;;;;;;;0.70;75.37;100750.16;1781259;79;28484;-75
2021/01/10 00:55:28;;;;;;;24.20;15.88;;;;;;;0.72;75.36;100755.22;1774480;80;21136;-76
2021/01/10 00:57:56;;;;;;;23.12;15.85;;;;;;;0.71;75.30;100751.78;1758207;80;22274;-76
2021/01/10 01:00:26;;;;;;;24.23;16.15;;;;;;;0.68;75.35;100758.22;1742709;81;21195;-74
2021/01/10 01:02:53;;;;;;;25.40;16.25;;;;;;;0.66;75.36;100748.92;1746877;81;21208;-76
2021/01/10 01:05:23;;;;;;;26.23;17.23;;;;;;;0.65;75.41;100750.70;1713315;83;21196;-76
2021/01/10 01:07:53;;;;;;;24.10;16.40;;;;;;;0.65;75.46;100750.70;1662724;85;21655;-76
2021/01/10 01:10:23;;;;;;;28.00;17.45;;;;;;;0.67;75.50;100750.53;1702681;83;21399;-76
2021/01/10 01:12:51;;;;;;;26.02;16.57;;;;;;;0.69;75.55;100749.36;1680902;83;21227;-74
2021/01/10 01:15:19;;;;;;;26.23;17.48;;;;;;;0.73;75.50;100746.36;1686141;83;21124;-77
2021/01/10 01:17:46;;;;;;;25.95;17.82;;;;;;;0.75;75.49;100743.02;1715888;83;21192;-76
2021/01/10 01:20:15;;;;;;;24.23;16.42;;;;;;;0.73;75.35;100743.73;1682583;84;21200;-77
2021/01/10 01:22:43;;;;;;;22.37;15.88;;;;;;;0.70;75.37;100744.91;1685192;84;21419;-76
2021/01/10 01:25:13;;;;;;;23.38;15.58;;;;;;;0.70;75.41;100742.28;1685742;83;21187;-78
2021/01/10 01:27:40;;;;;;;27.90;17.73;;;;;;;0.69;75.41;100751.14;1689371;84;21168;-78
2021/01/10 01:30:10;;;;;;;23.32;15.00;;;;;;;0.67;75.46;100742.14;1686820;84;21213;-76
2021/01/10 01:32:38;;;;;;;26.05;17.55;;;;;;;0.68;75.49;100748.21;1689260;84;21172;-76
2021/01/10 01:35:08;;;;;;;24.30;15.93;;;;;;;0.68;75.51;100754.28;1683458;84;22317;-75
2021/01/10 01:37:36;;;;;;;28.98;17.17;;;;;;;0.68;75.55;100750.84;1690213;84;21176;-76
2021/01/10 01:40:08;;;;;;;24.37;16.15;;;;;;;0.65;75.59;100752.02;1674120;84;21640;-76
2021/01/10 01:42:37;;;;;;;28.50;18.98;;;;;;;0.64;75.62;100749.59;1721011;83;21164;-76
2021/01/10 01:45:07;;;;;;;25.02;16.07;;;;;;;0.61;75.65;100750.77;1688274;83;21148;-75
2021/01/10 01:47:34;;;;;;;25.72;17.48;;;;;;;0.62;75.67;100750.27;1688653;85;21348;-75
2021/01/10 01:50:05;;;;;;;31.00;19.67;;;;;;;0.62;75.70;100752.39;1664988;84;21686;-75
2021/01/10 01:52:34;;;;;;;25.08;15.72;;;;;;;0.59;75.75;100755.42;1674364;84;21219;-76
2021/01/10 01:55:05;;;;;;;26.07;16.70;;;;;;;0.57;75.85;100751.34;1727511;81;21176;-77
2021/01/10 01:57:33;;;;;;;26.33;16.10;;;;;;;0.57;75.91;100752.66;1732153;82;21137;-77
2021/01/10 02:00:02;;;;;;;26.35;17.70;;;;;;;0.53;75.98;100755.32;1730571;82;21211;-77
2021/01/10 02:02:32;;;;;;;23.95;15.15;;;;;;;0.52;76.06;100757.14;1725785;81;21640;-76
2021/01/10 02:05:07;;;;;;;24.95;15.98;;;;;;;0.50;76.15;100752.59;1734079;81;21740;-76
2021/01/10 02:07:51;;;;;;;26.70;17.48;;;;;;;0.49;76.22;100757.51;1731200;82;21236;-76
2021/01/10 02:10:24;;;;;;;23.98;15.83;;;;;;;0.46;76.32;100757.41;1740591;82;21631;-75
2021/01/10 02:12:56;;;;;;;24.82;17.23;;;;;;;0.44;76.42;100758.08;1733095;82;21390;-76
2021/01/10 02:15:27;;;;;;;26.27;16.75;;;;;;;0.44;76.51;100760.70;1733099;81;26976;-76
2021/01/10 02:17:55;;;;;;;23.95;16.52;;;;;;;0.44;76.54;100759.89;1724769;82;21209;-76
2021/01/10 02:20:31;;;;;;;23.62;16.42;;;;;;;0.45;76.59;100760.20;1738079;82;21106;-76
2021/01/10 02:23:19;;;;;;;28.23;17.95;;;;;;;0.45;76.67;100761.52;1736542;82;21222;-75
2021/01/10 02:25:48;;;;;;;27.40;16.77;;;;;;;0.44;76.74;100759.89;1731935;82;21668;-75
2021/01/10 02:28:22;;;;;;;25.62;16.80;;;;;;;0.43;76.82;100758.28;1734738;82;21208;-75
2021/01/10 02:30:51;;;;;;;26.05;16.97;;;;;;;0.40;76.90;100762.59;1706715;82;21177;-76
2021/01/10 02:33:33;;;;;;;25.95;16.50;;;;;;;0.38;76.93;100752.25;1733367;82;21644;-76
2021/01/10 02:36:10;;;;;;;25.77;17.42;;;;;;;0.39;77.02;100760.44;1724058;82;21172;-76
2021/01/10 02:38:48;;;;;;;25.48;17.12;;;;;;;0.37;77.09;100758.51;1698669;84;21712;-76
2021/01/10 02:41:42;;;;;;;27.40;17.55;;;;;;;0.38;77.20;100755.37;1736923;82;21136;-77
2021/01/10 02:44:24;;;;;;;26.20;16.55;;;;;;;0.36;77.30;100750.32;1723280;82;21128;-76
2021/01/10 02:46:53;;;;;;;;;;;;;;;0.37;77.33;100754.56;1729553;82;21148;-75
2021/01/10 02:49:21;;;;;;;25.90;17.17;;;;;;;0.37;77.40;100751.94;1737984;82;20547;-77
2021/01/10 02:51:50;;;;;;;24.95;16.65;;;;;;;0.38;77.49;100754.06;1736519;82;22362;-77
2021/01/10 02:54:18;;;;;;;27.50;17.75;;;;;;;0.38;77.54;100752.75;1724454;82;21171;-77
2021/01/10 02:57:01;;;;;;;29.75;19.17;;;;;;;0.37;77.60;100755.07;1731501;82;21172;-78
2021/01/10 02:59:31;;;;;;;29.95;18.70;;;;;;;0.37;77.68;100762.45;1727835;82;22137;-77
2021/01/10 03:02:02;;;;;;;27.82;17.23;;;;;;;0.36;77.76;100759.52;1722282;82;21566;-76
2021/01/10 03:04:31;;;;;;;29.05;18.37;;;;;;;0.36;77.85;100759.52;1721970;82;21403;-76
2021/01/10 03:06:59;;;;;;;28.92;18.45;;;;;;;0.38;77.86;100754.06;1730198;81;21576;-76
2021/01/10 03:09:27;;;;;;;31.70;21.20;;;;;;;0.38;77.92;100758.00;1715011;82;21180;-76
2021/01/10 03:11:55;;;;;;;30.52;19.77;;;;;;;0.36;77.96;100752.95;1737520;82;21240;-76
2021/01/10 03:14:23;;;;;;;30.25;19.50;;;;;;;0.37;78.00;100755.87;1737733;82;21171;-76
2021/01/10 03:16:50;;;;;;;30.12;18.67;;;;;;;0.37;78.06;100755.07;1735621;80;21459;-76
2021/01/10 03:19:18;;;;;;;31.12;19.57;;;;;;;0.37;78.09;100755.07;1692298;82;21172;-76
2021/01/10 03:21:47;;;;;;;29.10;18.90;;;;;;;0.40;78.06;100758.64;1735400;82;21191;-77
2021/01/10 03:24:15;;;;;;;31.57;19.70;;;;;;;0.41;78.10;100761.08;1724011;82;21199;-75
2021/01/10 03:26:44;;;;;;;31.55;20.75;;;;;;;0.42;77.99;100756.63;1726559;82;21216;-75
2021/01/10 03:29:12;;;;;;;30.60;19.35;;;;;;;0.41;78.00;100751.87;1691266;84;21301;-75
2021/01/10 03:31:40;;;;;;;29.57;18.92;;;;;;;0.43;77.99;100753.02;1734915;82;21663;-75
2021/01/10 03:34:08;;;;;;;29.45;18.82;;;;;;;0.42;77.94;100757.44;1737379;82;21204;-74
2021/01/10 03:36:36;;;;;;;28.55;18.30;;;;;;;0.40;78.01;100759.96;1734575;81;21232;-75
2021/01/10 03:39:04;;;;;;;28.40;18.40;;;;;;;0.37;78.03;100757.20;1731124;82;21120;-75
2021/01/10 03:41:32;;;;;;;29.23;18.70;;;;;;;0.36;78.08;100752.95;1721219;82;21339;-75
2021/01/10 03:44:00;;;;;;;32.65;20.25;;;;;;;0.36;78.11;100756.05;1722948;82;21164;-75
2021/01/10 03:46:28;;;;;;;30.35;19.25;;;;;;;0.35;78.13;100755.74;1735572;82;21136;-76
2021/01/10 03:48:56;;;;;;;32.13;19.35;;;;;;;0.35;78.17;100756.55;1731901;82;21604;-76
2021/01/10 03:51:28;;;;;;;32.53;20.57;;;;;;;0.39;78.19;100760.94;1737182;82;21204;-75
2021/01/10 03:53:56;;;;;;;31.80;19.52;;;;;;;0.40;78.18;100762.59;1738007;82;21416;-75
2021/01/10 03:56:24;;;;;;;31.48;18.87;;;;;;;0.42;78.11;100761.88;1724547;82;21137;-75
2021/01/10 03:58:52;;;;;;;28.38;18.70;;;;;;;0.43;78.08;100764.34;1731327;82;21149;-75
2021/01/10 04:01:19;;;;;;;30.27;20.10;;;;;;;0.44;78.03;100766.47;1700229;82;21208;-75
2021/01/10 04:03:49;;;;;;;28.87;18.42;;;;;;;0.45;77.92;100758.38;1731023;82;21651;-75
2021/01/10 04:06:17;;;;;;;30.72;18.65;;;;;;;0.46;77.89;100767.08;1737839;82;21533;-76
2021/01/10 04:08:46;;;;;;;32.05;19.45;;;;;;;0.46;77.90;100760.03;1730745;82;21160;-76
2021/01/10 04:11:14;;;;;;;31.45;18.73;;;;;;;0.49;77.88;100758.02;1735625;81;21180;-76
2021/01/10 04:13:42;;;;;;;30.68;18.82;;;;;;;0.51;77.90;100762.09;1737689;82;21204;-76
2021/01/10 04:16:12;;;;;;;34.13;20.70;;;;;;;0.53;77.84;100764.05;1727958;82;21421;-76
2021/01/10 04:18:40;;;;;;;32.45;20.05;;;;;;;0.55;77.87;100771.73;1726854;81;21376;-76
2021/01/10 04:21:08;;;;;;;28.75;18.17;;;;;;;0.58;77.74;100770.86;1733850;81;21236;-76
2021/01/10 04:23:35;;;;;;;27.67;17.73;;;;;;;0.61;77.68;100769.67;1737651;82;21211;-77
2021/01/10 04:26:04;;;;;;;32.00;20.30;;;;;;;0.62;77.58;100774.73;1728972;82;21694;-77
2021/01/10 04:28:32;;;;;;;31.27;19.77;;;;;;;0.62;77.56;100777.36;1732566;81;21611;-75
2021/01/10 04:31:03;;;;;;;30.50;19.42;;;;;;;0.64;77.56;100777.20;1731095;82;21357;-76
2021/01/10 04:33:31;;;;;;;27.02;16.30;;;;;;;0.63;77.57;100778.20;1726032;82;21685;-76
2021/01/10 04:35:58;;;;;;;33.65;20.20;;;;;;;0.62;77.55;100781.31;1733782;82;21592;-77
2021/01/10 04:38:26;;;;;;;26.97;18.05;;;;;;;0.64;77.55;100787.71;1728466;81;21636;-76
2021/01/10 04:40:57;;;;;;;28.60;18.10;;;;;;;0.65;77.47;100787.51;1730015;82;21183;-75
2021/01/10 04:43:25;;;;;;;30.23;19.15;;;;;;;0.67;77.40;100800.48;1715340;82;21395;-75
2021/01/10 04:45:53;;;;;;;32.67;20.52;;;;;;;0.67;77.40;100798.66;1694087;82;21191;-76
2021/01/10 04:48:22;;;;;;;31.95;20.08;;;;;;;0.67;77.34;100800.48;1723348;82;21189;-76
2021/01/10 04:50:50;;;;;;;30.75;19.20;;;;;;;0.67;77.32;100801.80;1682096;84;21109;-75
2021/01/10 04:53:20;;;;;;;33.38;20.40;;;;;;;0.68;77.36;100813.93;1737993;82;21164;-75
2021/01/10 04:55:48;;;;;;;32.40;20.32;;;;;;;0.68;77.20;100809.48;1737280;82;21358;-77
2021/01/10 04:58:18;;;;;;;32.63;19.95;;;;;;;0.69;77.21;100814.23;1683963;81;21196;-76
2021/01/10 05:00:45;;;;;;;35.75;21.73;;;;;;;0.69;77.16;100811.61;1705346;82;21211;-76
2021/01/10 05:03:18;;;;;;;31.30;19.52;;;;;;;0.71;77.13;100817.51;1711738;82;21503;-76
2021/01/10 05:05:46;;;;;;;27.15;17.50;;;;;;;0.73;77.11;100826.54;1734789;82;21652;-74
2021/01/10 05:08:13;;;;;;;28.77;19.12;;;;;;;0.73;77.06;100827.86;1698699;81;21407;-75
2021/01/10 05:10:43;;;;;;;30.75;19.32;;;;;;;0.71;77.05;100826.70;1730341;82;21569;-75
2021/01/10 05:13:14;;;;;;;33.98;19.90;;;;;;;0.73;76.97;100835.74;1732638;82;21600;-76
2021/01/10 05:15:43;;;;;;;28.90;19.12;;;;;;;0.72;76.91;100831.46;1734508;81;21112;-76
2021/01/10 05:18:11;;;;;;;29.40;19.95;;;;;;;0.71;76.99;100835.91;1737486;81;21176;-77
2021/01/10 05:20:39;;;;;;;29.85;18.90;;;;;;;0.72;77.02;100830.14;1726971;81;21387;-75
2021/01/10 05:23:07;;;;;;;28.55;18.45;;;;;;;0.72;76.99;100832.77;1736326;82;21200;-74
2021/01/10 05:25:35;;;;;;;31.52;20.45;;;;;;;0.72;76.99;100836.72;1731689;82;21180;-76
2021/01/10 05:28:05;;;;;;;31.55;20.23;;;;;;;0.72;76.95;100841.47;1725723;82;21144;-76
2021/01/10 05:30:33;;;;;;;28.62;18.50;;;;;;;0.70;76.95;100841.67;1721388;81;21105;-76
2021/01/10 05:33:07;;;;;;;34.27;22.10;;;;;;;0.70;76.96;100839.55;1724996;82;21378;-75
2021/01/10 05:35:51;;;;;;;32.25;20.35;;;;;;;0.70;77.07;100843.48;1721844;81;21670;-76
2021/01/10 05:38:33;;;;;;;32.58;20.05;;;;;;;0.74;77.03;100839.99;1725765;82;21140;-77
2021/01/10 05:41:06;;;;;;;29.72;18.40;;;;;;;0.75;77.05;100847.68;1725492;82;21192;-76
2021/01/10 05:43:34;;;;;;;29.05;18.65;;;;;;;0.75;77.04;100858.70;1723748;82;21145;-75
2021/01/10 05:46:03;;;;;;;28.90;19.30;;;;;;;0.75;76.94;100856.06;1729471;82;21206;-76
2021/01/10 05:48:31;;;;;;;31.27;18.92;;;;;;;0.75;76.93;100848.19;1653183;84;21137;-75
2021/01/10 05:50:58;;;;;;;31.80;20.10;;;;;;;0.72;76.93;100851.98;1619631;85;21200;-78
2021/01/10 05:53:26;;;;;;;27.45;17.20;;;;;;;0.73;76.94;100857.59;1691119;81;21149;-77
2021/01/10 05:56:00;;;;;;;33.92;19.62;;;;;;;0.72;76.99;100856.44;1745275;81;21627;-78
2021/01/10 05:58:30;;;;;;;33.08;20.60;;;;;;;0.69;77.00;100861.08;1736049;82;21385;-79
2021/01/10 06:01:00;;;;;;;30.43;18.92;;;;;;;0.68;77.02;100864.69;1731603;82;21165;-77
2021/01/10 06:03:31;;;;;;;34.80;20.68;;;;;;;0.66;77.08;100858.02;1691366;84;21202;-76
2021/01/10 06:08:41;;;;;;;31.97;19.00;;;;;;;0.70;77.13;100867.16;1806066;79;23769;-75
2021/01/10 06:11:18;;;;;;;31.57;19.17;;;;;;;0.63;77.14;100870.20;1784065;78;21123;-76
2021/01/10 06:13:55;;;;;;;31.73;19.00;;;;;;;0.62;77.20;100871.19;1795155;79;21392;-75
2021/01/10 06:16:35;;;;;;;33.20;19.42;;;;;;;0.63;77.27;100882.84;1785150;78;21616;-76
2021/01/10 06:19:08;;;;;;;29.85;19.35;;;;;;;0.64;77.30;100880.52;1788920;79;21152;-75
2021/01/10 06:21:35;;;;;;;32.53;18.85;;;;;;;0.66;77.35;100880.36;1781938;78;21682;-75
2021/01/10 06:24:06;;;;;;;34.30;21.17;;;;;;;0.68;77.31;100880.97;1788385;78;21674;-75
2021/01/10 06:26:34;;;;;;;30.68;19.15;;;;;;;0.66;77.27;100887.73;1793497;79;22306;-75
2021/01/10 06:29:05;;;;;;;35.15;21.37;;;;;;;0.67;77.30;100892.49;1790266;79;21599;-76
2021/01/10 06:31:35;;;;;;;31.87;19.90;;;;;;;0.67;77.32;100890.67;1787090;78;21160;-75
2021/01/10 06:34:08;;;;;;;32.58;19.82;;;;;;;0.66;77.32;100893.00;1788262;78;21195;-75
2021/01/10 06:36:41;;;;;;;31.68;19.70;;;;;;;0.65;77.34;100895.28;1792856;78;22055;-74
2021/01/10 06:39:12;;;;;;;28.47;18.87;;;;;;;0.63;77.37;100905.19;1782621;78;21448;-76
2021/01/10 06:42:06;;;;;;;27.60;17.30;;;;;;;0.64;77.43;100897.61;1788071;78;21205;-76
2021/01/10 06:44:37;;;;;;;33.08;20.57;;;;;;;0.69;77.44;100904.94;1780078;79;21221;-75
2021/01/10 06:47:07;;;;;;;30.37;18.27;;;;;;;0.69;77.43;100907.56;1792395;79;21176;-77
2021/01/10 06:49:35;;;;;;;31.27;19.65;;;;;;;0.70;77.40;100915.28;1788987;79;21140;-77
2021/01/10 06:52:04;;;;;;;29.48;18.65;;;;;;;0.70;77.42;100924.48;1788991;79;21705;-77
2021/01/10 06:54:41;;;;;;;29.95;18.25;;;;;;;0.73;77.37;100920.68;1785910;79;21156;-77
2021/01/10 06:57:09;;;;;;;31.57;20.15;;;;;;;0.74;77.34;100917.05;1792469;79;21140;-77
2021/01/10 07:00:02;;;;;;;32.50;20.48;;;;;;;0.78;77.39;100921.44;1782721;79;21132;-77
2021/01/10 07:02:30;;;;;;;31.00;19.48;;;;;;;0.81;77.35;100927.14;1790069;79;21381;-76
2021/01/10 07:04:59;;;;;;;29.12;18.37;;;;;;;0.84;77.17;100931.22;1786676;78;21373;-77
2021/01/10 07:07:35;;;;;;;27.50;17.67;;;;;;;0.82;77.13;100931.39;1777646;78;21203;-75
2021/01/10 07:10:07;;;;;;;30.23;19.25;;;;;;;0.83;77.21;100936.98;1768529;80;21122;-76
2021/01/10 07:12:34;;;;;;;26.82;17.57;;;;;;;0.87;77.24;100936.93;1768594;80;21149;-76
2021/01/10 07:15:22;;;;;;;30.75;20.45;;;;;;;0.91;77.24;100942.13;1827268;77;21151;-75
2021/01/10 07:18:04;;;;;;;29.57;18.40;;;;;;;1.01;77.21;100939.72;1768004;79;22924;-72
2021/01/10 07:20:35;;;;;;;29.27;18.32;;;;;;;0.97;77.01;100939.27;1748332;81;21170;-73
2021/01/10 07:23:29;;;;;;;29.85;18.32;;;;;;;0.99;77.03;100946.49;1751348;80;21180;-73
2021/01/10 07:25:59;;;;;;;25.45;16.87;;;;;;;1.00;76.94;100946.80;1758642;80;21197;-74
2021/01/10 07:28:33;;;;;;;31.27;19.05;;;;;;;1.01;76.99;100945.78;1725463;81;21145;-74
2021/01/10 07:31:14;;;;;;;26.73;17.62;;;;;;;1.06;77.00;100942.12;1749269;80;21496;-73
2021/01/10 07:33:54;;;;;;;27.10;18.20;;;;;;;1.15;76.84;100949.38;1807304;78;23066;-76
2021/01/10 07:36:22;;;;;;;29.15;17.92;;;;;;;1.11;76.74;100949.44;1772036;78;21148;-76
2021/01/10 07:38:50;;;;;;;26.82;17.98;;;;;;;1.11;76.62;100950.76;1765269;80;21337;-76
2021/01/10 07:41:25;;;;;;;25.43;15.68;;;;;;;1.11;76.64;100950.76;1787754;78;21532;-75
2021/01/10 07:43:56;;;;;;;26.20;16.80;;;;;;;1.12;76.63;100953.22;1782605;80;21167;-77
2021/01/10 07:46:57;;;;;;;29.25;19.45;;;;;;;1.13;76.60;100952.21;1799605;77;21200;-74
2021/01/10 07:49:31;;;;;;;29.07;18.98;;;;;;;1.14;76.60;100952.52;1772124;80;26767;-76
2021/01/10 07:51:59;;;;;;;24.98;16.45;;;;;;;1.16;76.51;100955.79;1776775;78;21371;-75
2021/01/10 07:54:54;;;;;;;29.35;18.70;;;;;;;1.17;76.37;100954.78;1801313;78;21161;-77
2021/01/10 07:57:32;;;;;;;28.75;18.17;;;;;;;1.16;76.39;100958.42;1785723;78;21146;-75
2021/01/10 08:00:20;;;;;;;28.02;16.48;;;;;;;1.16;76.35;100957.61;1774966;79;21156;-75
2021/01/10 08:03:04;;;;;;;27.80;17.23;;;;;;;1.19;76.39;100956.44;1773042;80;21655;-75
2021/01/10 08:05:35;;;;;;;24.65;16.45;;;;;;;1.23;76.36;100960.31;1745499;81;21667;-76
2021/01/10 08:08:07;;;;;;;26.68;17.32;;;;;;;1.24;76.33;100965.88;1747782;81;26988;-75
2021/01/10 08:10:53;;;;;;;27.77;18.23;;;;;;;1.27;76.17;100960.25;1801714;79;22754;-75
2021/01/10 08:13:44;;;;;;;27.30;17.20;;;;;;;1.24;76.18;100968.52;1767974;80;21152;-75
2021/01/10 08:16:21;;;;;;;28.70;16.30;;;;;;;1.25;76.14;100967.50;1777769;80;21243;-76
2021/01/10 08:18:49;;;;;;;25.70;17.00;;;;;;;1.30;76.20;100969.09;1761231;80;21609;-75
2021/01/10 08:21:18;;;;;;;28.73;18.35;;;;;;;1.33;76.04;100967.41;1763244;80;21835;-78
2021/01/10 08:23:54;;;;;;;26.57;17.20;;;;;;;1.37;76.04;100971.30;1775825;79;21179;-75
2021/01/10 08:26:22;;;;;;;28.75;18.85;;;;;;;1.38;75.82;100971.12;1773932;79;21180;-76
2021/01/10 08:28:58;;;;;;;28.10;18.15;;;;;;;1.38;75.73;100973.75;1773829;79;21471;-77
2021/01/10 08:31:27;;;;;;;26.35;16.23;;;;;;;1.37;75.68;100972.61;1767853;79;21663;-75
2021/01/10 08:34:16;;;;;;;26.87;17.02;;;;;;;1.34;75.72;100972.47;1768226;80;21613;-76
2021/01/10 08:36:45;;;;;;;32.95;21.07;;;;;;;1.35;75.71;100970.17;1793912;78;21148;-75
2021/01/10 08:39:16;;;;;;;26.25;17.15;;;;;;;1.39;75.65;100965.35;1790714;79;21596;-75
2021/01/10 08:41:49;;;;;;;31.62;19.77;;;;;;;1.42;75.41;100964.98;1782100;79;21448;-76
2021/01/10 08:44:19;;;;;;;27.05;17.12;;;;;;;1.43;75.35;100971.05;1764465;79;21612;-75
2021/01/10 08:46:51;;;;;;;28.30;18.73;;;;;;;1.43;75.29;100968.42;1761839;79;21219;-76
2021/01/10 08:49:25;;;;;;;28.87;17.80;;;;;;;1.43;75.30;100967.11;1796332;78;21184;-75
2021/01/10 08:51:53;;;;;;;27.20;17.35;;;;;;;1.44;75.39;100964.27;1781977;79;21148;-75
2021/01/10 08:54:23;;;;;;;27.48;17.35;;;;;;;1.46;75.23;100969.37;1797894;78;21375;-75
2021/01/10 08:56:53;;;;;;;28.07;18.12;;;;;;;1.45;75.30;100971.19;1784575;79;21600;-75
2021/01/10 08:59:21;;;;;;;28.80;19.25;;;;;;;1.46;75.28;100963.60;1778089;79;21183;-74
2021/01/10 09:01:48;;;;;;;28.20;18.45;;;;;;;1.49;75.28;100961.91;1774983;79;21552;-76
2021/01/10 09:04:17;;;;;;;30.65;19.62;;;;;;;1.55;75.38;100955.91;1777861;79;21647;-76
2021/01/10 09:07:03;;;;;;;29.50;19.37;;;;;;;1.64;75.29;100961.33;1765129;81;21376;-76
2021/01/10 09:09:39;;;;;;;27.67;18.30;;;;;;;1.69;75.15;100951.57;1765818;79;21200;-75
2021/01/10 09:12:37;;;;;;;28.65;17.52;;;;;;;1.72;75.00;100955.15;1756938;81;21275;-74
2021/01/10 09:15:12;;;;;;;29.77;18.85;;;;;;;1.74;74.95;100950.99;1763187;79;21254;-75
2021/01/10 09:17:47;;;;;;;30.90;19.45;;;;;;;1.74;74.79;100953.62;1755873;80;21209;-76
2021/01/10 09:20:19;;;;;;;26.70;17.52;;;;;;;1.76;74.70;100955.08;1753088;79;21951;-76
2021/01/10 09:22:46;;;;;;;29.67;18.73;;;;;;;1.77;74.66;100953.25;1761273;81;21147;-74
2021/01/10 09:25:16;;;;;;;26.93;16.97;;;;;;;1.79;74.74;100948.63;1763252;80;21155;-76
2021/01/10 09:28:09;;;;;;;28.02;18.82;;;;;;;1.81;74.49;100956.66;1754512;81;21160;-75
2021/01/10 09:30:39;;;;;;;26.20;18.15;;;;;;;1.78;73.97;100950.44;1743841;81;21213;-75
2021/01/10 09:33:07;;;;;;;25.75;16.62;;;;;;;1.74;74.14;100952.31;1757208;79;21398;-75
2021/01/10 09:35:46;;;;;;;27.48;18.55;;;;;;;1.74;74.04;100948.36;1764675;79;21518;-75
2021/01/10 09:38:25;;;;;;;27.62;17.57;;;;;;;1.76;74.13;100958.22;1761576;79;21180;-74
2021/01/10 09:43:58;;;;;;;26.37;16.43;;;;;;;1.82;73.69;100946.92;1797674;78;22789;-76
2021/01/10 09:46:38;;;;;;;28.17;17.85;;;;;;;1.78;73.73;100950.95;1802208;78;21141;-77
2021/01/10 09:49:30;;;;;;;27.98;17.85;;;;;;;1.78;73.71;100943.86;1768386;80;21363;-76
2021/01/10 09:52:04;;;;;;;25.68;16.25;;;;;;;1.79;73.57;100957.84;1779428;80;21171;-75
2021/01/10 09:54:36;;;;;;;24.55;16.25;;;;;;;1.78;73.57;100957.03;1777492;80;21149;-74
2021/01/10 09:57:13;;;;;;;28.42;17.85;;;;;;;1.80;73.59;100951.05;1787692;78;23149;-73
2021/01/10 09:59:57;;;;;;;28.50;18.15;;;;;;;1.85;73.56;100954.45;1783701;78;21108;-74
2021/01/10 10:02:36;;;;;;;26.70;16.90;;;;;;;1.88;73.37;100949.62;1785837;79;21284;-76
2021/01/10 10:05:14;;;;;;;26.05;16.67;;;;;;;1.91;73.35;100946.27;1782202;78;21161;-74
2021/01/10 10:07:50;;;;;;;28.20;18.20;;;;;;;1.92;73.16;100948.73;1777550;78;21040;-75
2021/01/10 10:10:27;;;;;;;25.40;16.97;;;;;;;1.86;72.89;100945.53;1803199;78;21694;-76
2021/01/10 10:13:09;;;;;;;27.85;18.07;;;;;;;1.80;72.92;100946.29;1788467;78;21116;-75
2021/01/10 10:15:46;;;;;;;25.20;16.07;;;;;;;1.73;73.01;100954.13;1783266;78;21366;-76
2021/01/10 10:18:21;;;;;;;28.92;18.15;;;;;;;1.70;73.05;100948.43;1759854;79;21180;-75
2021/01/10 10:20:50;;;;;;;31.02;18.48;;;;;;;1.66;73.20;100957.21;1788115;79;21147;-75
2021/01/10 10:23:17;;;;;;;26.40;17.15;;;;;;;1.63;73.34;100950.50;1778277;78;21637;-75
2021/01/10 10:25:48;;;;;;;30.82;19.40;;;;;;;1.66;73.46;100952.45;1812582;77;21140;-76
2021/01/10 10:28:16;;;;;;;25.92;17.10;;;;;;;1.69;73.67;100952.08;1806056;77;22719;-74
2021/01/10 10:30:46;;;;;;;25.75;16.65;;;;;;;1.73;73.58;100952.81;1785743;79;21175;-77
2021/01/10 10:33:16;;;;;;;30.15;18.77;;;;;;;1.74;73.40;100949.17;1780992;79;21585;-76
2021/01/10 10:35:45;;;;;;;27.55;18.00;;;;;;;1.73;73.37;100952.81;1781332;78;21231;-76
2021/01/10 10:38:12;;;;;;;29.32;17.95;;;;;;;1.73;73.58;100950.19;1805115;78;21160;-75
2021/01/10 10:40:40;;;;;;;26.25;16.02;;;;;;;1.75;73.63;100946.06;1786903;79;21464;-75
2021/01/10 10:43:08;;;;;;;28.73;17.20;;;;;;;1.80;73.65;100955.51;1792710;78;21191;-76
2021/01/10 10:45:35;;;;;;;31.12;19.32;;;;;;;1.81;73.59;100945.28;1787548;78;21139;-75
2021/01/10 10:48:05;;;;;;;27.22;17.15;;;;;;;1.84;73.64;100941.79;1784176;79;21891;-77
2021/01/10 10:50:35;;;;;;;32.45;19.15;;;;;;;1.91;73.47;100944.48;1785646;78;21081;-76
2021/01/10 10:53:05;;;;;;;28.50;17.98;;;;;;;1.92;73.41;100946.61;1808470;78;21378;-75
2021/01/10 10:55:34;;;;;;;27.77;17.07;;;;;;;1.94;73.29;100949.84;1783710;78;21122;-76
2021/01/10 10:58:02;;;;;;;30.75;18.52;;;;;;;1.90;73.08;100943.34;1783170;78;21180;-76
2021/01/10 11:00:33;;;;;;;28.62;16.77;;;;;;;1.84;73.07;100936.52;1768470;80;21494;-74
2021/01/10 11:03:02;;;;;;;27.22;17.50;;;;;;;1.81;73.14;100943.48;1779973;79;21105;-76
2021/01/10 11:05:30;;;;;;;26.87;17.77;;;;;;;1.83;73.03;100943.28;1660399;79;10000112;-75
2021/01/10 11:07:58;;;;;;;28.60;17.98;;;;;;;1.82;72.94;100937.70;1787836;78;20931;-76
2021/01/10 11:10:26;;;;;;;27.37;16.77;;;;;;;1.77;72.92;100946.16;1789789;78;21711;-76
2021/01/10 11:12:54;;;;;;;28.65;17.98;;;;;;;1.76;72.94;100942.41;1784962;78;21743;-76
2021/01/10 11:15:23;;;;;;;27.82;17.17;;;;;;;1.77;72.94;100944.84;1790276;79;21361;-78
2021/01/10 11:17:52;;;;;;;32.05;19.27;;;;;;;1.80;72.93;100952.88;1779768;78;21170;-74
2021/01/10 11:20:20;;;;;;;27.70;17.17;;;;;;;1.80;72.93;100939.20;1795087;78;21219;-74
2021/01/10 11:22:51;;;;;;;29.75;17.35;;;;;;;1.81;73.03;100940.01;1776736;80;22231;-77
2021/01/10 11:25:19;;;;;;;27.07;17.27;;;;;;;1.83;72.99;100937.50;1757322;79;21244;-77
2021/01/10 11:27:48;;;;;;;29.42;19.50;;;;;;;1.84;72.80;100943.58;1805586;78;21678;-77
2021/01/10 11:30:16;;;;;;;30.55;19.60;;;;;;;1.87;72.90;100928.21;1767809;80;21196;-80
2021/01/10 11:32:44;;;;;;;32.63;19.42;;;;;;;1.89;72.81;100937.25;1809832;78;21147;-79
2021/01/10 11:35:12;;;;;;;28.83;17.77;;;;;;;1.92;72.61;100940.83;1658800;78;10000129;-73
2021/01/10 11:37:41;;;;;;;25.48;15.90;;;;;;;1.94;72.32;100942.78;1778228;78;21799;-78
2021/01/10 11:40:11;;;;;;;26.95;17.17;;;;;;;1.91;72.08;100943.16;1773338;80;21670;-80
2021/01/10 11:42:39;;;;;;;28.07;17.85;;;;;;;1.89;72.05;100945.16;1774941;80;21187;-81
2021/01/10 11:45:09;;;;;;;29.20;18.87;;;;;;;1.87;72.10;100947.16;1788039;78;21154;-80